createdAt,value
2019-04-23T00:01:54.411Z,20.36
2019-04-23T00:04:16.872Z,20.42
2019-04-23T00:07:04.161Z,20.39
2019-04-23T00:09:20.403Z,20.37
2019-04-23T00:11:46.144Z,20.18
2019-04-23T00:14:20.787Z,20.02
2019-04-23T00:16:45.978Z,20.23
2019-04-23T00:19:18.634Z,20.23
2019-04-23T00:21:52.218Z,20.17
2019-04-23T00:25:09.752Z,19.78
2019-04-23T00:27:17.079Z,20.15
2019-04-23T00:29:46.237Z,19.65
2019-04-23T00:32:08.472Z,20.01
2019-04-23T00:34:44.580Z,19.86
2019-04-23T00:37:12.518Z,20.05
2019-04-23T00:39:43.954Z,19.96
2019-04-23T00:42:07.090Z,19.95
2019-04-23T00:44:41.520Z,19.97
2019-04-23T00:47:06.156Z,20.05
2019-04-23T00:49:37.184Z,19.89
2019-04-23T00:52:06.075Z,19.80
2019-04-23T00:54:32.703Z,19.72
2019-04-23T00:57:07.518Z,19.29
2019-04-23T00:59:38.789Z,19.47
2019-04-23T01:02:00.917Z,19.50
2019-04-23T01:04:32.801Z,19.55
2019-04-23T01:06:58.285Z,19.83
2019-04-23T01:09:37.306Z,19.68
2019-04-23T01:12:03.129Z,19.56
2019-04-23T01:14:31.607Z,19.53
2019-04-23T01:17:04.811Z,19.88
2019-04-23T01:19:37.254Z,19.61
2019-04-23T01:21:51.494Z,19.59
2019-04-23T01:24:37.191Z,19.58
2019-04-23T01:30:08.377Z,19.52
2019-04-23T01:32:31.454Z,19.72
2019-04-23T01:35:10.973Z,19.97
2019-04-23T01:37:33.163Z,19.82
2019-04-23T01:39:59.253Z,19.57
2019-04-23T01:42:37.315Z,19.57
2019-04-23T01:45:03.363Z,19.77
2019-04-23T01:47:24.684Z,19.55
2019-04-23T01:50:01.889Z,19.54
2019-04-23T01:52:32.019Z,19.78
2019-04-23T01:54:52.248Z,19.57
2019-04-23T01:57:26.365Z,19.72
2019-04-23T01:59:55.217Z,19.51
2019-04-23T02:02:29.802Z,19.64
2019-04-23T02:04:54.224Z,19.52
2019-04-23T02:07:34.204Z,19.40
2019-04-23T02:09:55.608Z,19.64
2019-04-23T02:12:28.862Z,19.52
2019-04-23T02:14:50.371Z,19.42
2019-04-23T02:17:24.736Z,19.64
2019-04-23T02:19:51.830Z,18.84
2019-04-23T02:22:38.181Z,19.47
2019-04-23T02:25:30.306Z,19.47
2019-04-23T02:27:53.689Z,19.07
2019-04-23T02:30:40.643Z,19.31
2019-04-23T02:32:59.330Z,18.99
2019-04-23T02:40:30.574Z,19.35
2019-04-23T02:43:01.652Z,19.30
2019-04-23T02:45:36.115Z,18.73
2019-04-23T02:50:34.658Z,18.96
2019-04-23T02:52:49.798Z,18.71
2019-04-23T02:57:54.169Z,19.16
2019-04-23T03:02:49.071Z,18.90
2019-04-23T03:07:45.122Z,18.69
2019-04-23T03:10:18.431Z,18.81
2019-04-23T03:18:39.237Z,19.08
2019-04-23T03:21:25.427Z,18.82
2019-04-23T03:24:11.354Z,18.53
2019-04-23T03:35:09.169Z,18.99
2019-04-23T03:36:39.628Z,18.84
2019-04-23T03:38:51.594Z,18.18
2019-04-23T03:41:41.760Z,18.55
2019-04-23T03:46:29.466Z,18.82
2019-04-23T03:56:45.229Z,18.85
2019-04-23T04:01:29.149Z,18.17
2019-04-23T04:04:22.740Z,18.54
2019-04-23T04:09:06.281Z,18.58
2019-04-23T04:14:10.242Z,18.49
2019-04-23T04:16:28.421Z,18.69
2019-04-23T04:31:37.463Z,18.26
2019-04-23T04:34:14.794Z,18.14
2019-04-23T04:36:53.530Z,18.09
2019-04-23T04:38:56.628Z,18.04
2019-04-23T04:41:27.683Z,18.26
2019-04-23T04:46:30.401Z,18.15
2019-04-23T04:48:56.553Z,18.73
2019-04-23T04:51:32.748Z,18.85
2019-04-23T04:54:08.273Z,18.79
2019-04-23T04:58:52.972Z,18.37
2019-04-23T05:03:32.788Z,18.80
2019-04-23T05:06:33.867Z,18.77
2019-04-23T05:08:54.392Z,18.30
2019-04-23T05:19:10.727Z,18.83
2019-04-23T05:21:26.842Z,18.98
2019-04-23T05:23:54.085Z,18.85
2019-04-23T05:26:29.341Z,18.91
2019-04-23T05:29:00.139Z,18.69
2019-04-23T05:31:18.990Z,18.93
2019-04-23T05:33:56.851Z,18.95
2019-04-23T05:36:52.049Z,18.94
2019-04-23T05:39:07.568Z,18.98
2019-04-23T05:41:24.929Z,19.33
2019-04-23T05:43:46.454Z,19.11
2019-04-23T05:46:21.244Z,19.44
2019-04-23T05:48:45.846Z,19.23
2019-04-23T05:51:38.282Z,19.34
2019-04-23T05:53:47.175Z,19.45
2019-04-23T05:56:15.235Z,19.40
2019-04-23T05:58:46.863Z,19.46
2019-04-23T06:01:41.707Z,19.24
2019-04-23T06:03:56.934Z,19.20
2019-04-23T06:06:20.278Z,19.35
2019-04-23T06:08:49.266Z,19.32
2019-04-23T06:11:20.873Z,19.18
2019-04-23T06:13:56.270Z,19.06
2019-04-23T06:16:24.965Z,19.33
2019-04-23T06:21:15.654Z,19.46
2019-04-23T06:26:26.860Z,19.28
2019-04-23T06:28:50.757Z,19.46
2019-04-23T06:31:22.886Z,19.38
2019-04-23T06:33:48.087Z,19.62
2019-04-23T06:36:24.267Z,19.45
2019-04-23T06:41:15.638Z,19.45
2019-04-23T06:44:15.875Z,19.54
2019-04-23T06:46:43.428Z,19.58
2019-04-23T06:49:11.401Z,19.66
2019-04-23T06:51:46.205Z,19.61
2019-04-23T06:54:03.315Z,19.81
2019-04-23T06:56:44.778Z,19.88
2019-04-23T06:59:07.641Z,19.59
2019-04-23T07:01:37.855Z,19.49
2019-04-23T07:06:38.454Z,19.73
2019-04-23T07:09:10.650Z,19.87
2019-04-23T07:11:40.273Z,19.05
2019-04-23T07:13:58.775Z,19.61
2019-04-23T07:16:32.891Z,19.78
2019-04-23T07:19:12.570Z,19.65
2019-04-23T07:21:37.302Z,19.45
2019-04-23T07:24:05.420Z,19.70
2019-04-23T07:26:34.911Z,19.72
2019-04-23T07:31:48.362Z,19.85
2019-04-23T07:34:01.287Z,19.46
2019-04-23T07:36:34.249Z,20.16
2019-04-23T07:42:09.159Z,19.96
2019-04-23T07:44:54.534Z,20.10
2019-04-23T07:47:26.378Z,20.03
2019-04-23T07:50:00.711Z,20.09
2019-04-23T07:52:24.272Z,20.22
2019-04-23T07:54:58.780Z,19.79
2019-04-23T07:57:34.036Z,19.39
2019-04-23T07:59:56.834Z,19.99
2019-04-23T08:07:19.830Z,20.16
2019-04-23T08:09:53.287Z,20.05
2019-04-23T08:14:53.631Z,20.14
2019-04-23T08:17:21.009Z,20.42
2019-04-23T08:22:28.734Z,20.19
2019-04-23T08:27:42.069Z,20.42
2019-04-23T08:30:09.776Z,20.36
2019-04-23T08:32:47.323Z,20.36
2019-04-23T08:35:23.328Z,20.24
2019-04-23T08:38:02.673Z,20.16
2019-04-23T08:40:21.546Z,20.35
2019-04-23T08:43:10.337Z,20.50
2019-04-23T08:45:38.471Z,20.39
2019-04-23T08:53:29.727Z,20.61
2019-04-23T08:55:58.318Z,20.28
2019-04-23T08:58:23.795Z,20.30
2019-04-23T09:03:23.126Z,20.45
2019-04-23T09:05:57.787Z,20.55
2019-04-23T09:08:19.916Z,20.49
2019-04-23T09:10:54.733Z,20.51
2019-04-23T09:15:44.949Z,20.37
2019-04-23T09:18:17.946Z,20.26
2019-04-23T09:23:13.160Z,20.56
2019-04-23T09:25:51.035Z,20.56
2019-04-23T09:28:24.024Z,20.71
2019-04-23T09:30:49.351Z,20.66
2019-04-23T09:33:45.315Z,20.48
2019-04-23T09:36:20.192Z,20.56
2019-04-23T09:39:00.188Z,20.59
2019-04-23T09:42:04.818Z,20.54
2019-04-23T09:47:42.029Z,20.35
2019-04-23T09:50:08.991Z,20.50
2019-04-23T09:52:41.030Z,20.54
2019-04-23T09:57:33.837Z,20.46
2019-04-23T10:00:25.252Z,20.43
2019-04-23T10:02:26.401Z,20.60
2019-04-23T10:05:01.304Z,20.68
2019-04-23T10:07:28.607Z,20.61
2019-04-23T10:09:44.601Z,20.62
2019-04-23T10:12:13.190Z,20.62
2019-04-23T10:14:52.840Z,20.54
2019-04-23T10:17:11.822Z,20.64
2019-04-23T10:19:40.643Z,20.55
2019-04-23T10:22:09.180Z,20.88
2019-04-23T10:24:37.057Z,20.93
2019-04-23T10:27:06.095Z,20.57
2019-04-23T10:29:38.318Z,20.60
2019-04-23T10:32:15.616Z,20.65
2019-04-23T10:34:47.843Z,20.80
2019-04-23T10:37:09.352Z,20.87
2019-04-23T10:39:41.262Z,20.93
2019-04-23T10:42:07.976Z,20.72
2019-04-23T10:44:45.875Z,20.85
2019-04-23T10:48:05.420Z,20.93
2019-04-23T10:50:59.427Z,21.12
2019-04-23T10:56:11.350Z,20.93
2019-04-23T11:01:05.131Z,21.13
2019-04-23T11:03:42.488Z,21.20
2019-04-23T11:05:59.079Z,21.20
2019-04-23T11:08:27.762Z,21.17
2019-04-23T11:10:58.932Z,21.16
2019-04-23T11:13:38.032Z,21.15
2019-04-23T11:16:25.392Z,21.14
2019-04-23T11:18:50.159Z,21.19
2019-04-23T11:21:05.379Z,21.26
2019-04-23T11:23:32.578Z,21.25
2019-04-23T11:26:03.353Z,21.42
2019-04-23T11:30:55.297Z,21.29
2019-04-23T11:33:39.221Z,21.37
2019-04-23T11:36:35.665Z,21.26
2019-04-23T11:38:50.840Z,21.41
2019-04-23T11:41:17.257Z,21.24
2019-04-23T11:43:37.841Z,21.34
2019-04-23T11:48:45.864Z,21.56
2019-04-23T11:53:41.050Z,21.22
2019-04-23T11:56:02.807Z,21.24
2019-04-23T12:01:38.788Z,21.47
2019-04-23T12:04:13.983Z,21.44
2019-04-23T12:06:38.821Z,21.61
2019-04-23T12:09:34.817Z,21.61
2019-04-23T12:17:26.093Z,21.93
2019-04-23T12:19:57.530Z,21.45
2019-04-23T12:22:26.976Z,21.68
2019-04-23T12:38:01.235Z,21.77
2019-04-23T12:40:23.474Z,21.97
2019-04-23T12:42:57.037Z,21.82
2019-04-23T12:52:46.878Z,22.31
2019-04-23T12:55:30.261Z,22.23
2019-04-23T12:58:11.045Z,22.18
2019-04-23T13:00:25.664Z,22.20
2019-04-23T13:02:52.449Z,22.20
2019-04-23T13:07:55.649Z,21.99
2019-04-23T13:10:23.428Z,22.08
2019-04-23T13:15:27.127Z,21.84
2019-04-23T13:17:54.373Z,22.24
2019-04-23T13:20:23.492Z,22.48
2019-04-23T13:23:15.220Z,22.03
2019-04-23T13:33:21.135Z,22.19
2019-04-23T13:36:00.984Z,22.24
2019-04-23T13:38:16.006Z,22.44
2019-04-23T13:46:00.077Z,22.54
2019-04-23T13:48:10.775Z,22.44
2019-04-23T13:50:51.571Z,22.51
2019-04-23T13:53:31.654Z,22.49
2019-04-23T13:55:42.555Z,22.62
2019-04-23T13:58:20.780Z,22.48
2019-04-23T14:03:09.598Z,22.57
2019-04-23T14:06:01.759Z,22.72
2019-04-23T14:08:34.889Z,22.62
2019-04-23T14:21:03.608Z,22.49
2019-04-23T14:23:41.246Z,22.58
2019-04-23T14:26:10.496Z,22.72
2019-04-23T14:28:28.878Z,22.66
2019-04-23T14:33:26.606Z,22.78
2019-04-23T14:35:54.181Z,22.70
2019-04-23T14:41:07.825Z,22.87
2019-04-23T14:43:25.820Z,23.01
2019-04-23T14:48:23.619Z,23.00
2019-04-23T14:51:11.386Z,23.08
2019-04-23T14:53:30.272Z,22.94
2019-04-23T14:56:00.526Z,22.93
2019-04-23T15:03:40.174Z,22.95
2019-04-23T15:08:44.581Z,22.85
2019-04-23T15:13:42.782Z,22.91
2019-04-23T15:24:00.940Z,23.03
2019-04-23T15:28:32.684Z,23.10
2019-04-23T15:41:24.993Z,23.32
2019-04-23T15:43:57.540Z,23.37
2019-04-23T15:46:25.222Z,23.30
2019-04-23T15:48:58.053Z,23.24
2019-04-23T15:51:28.208Z,23.29
2019-04-23T15:53:58.311Z,23.35
2019-04-23T15:56:29.220Z,23.51
2019-04-23T15:59:04.317Z,23.61
2019-04-23T16:03:21.475Z,23.47
2019-04-23T16:05:50.963Z,23.48
2019-04-23T16:08:59.457Z,23.61
2019-04-23T16:11:25.539Z,23.57
2019-04-23T16:14:04.771Z,23.37
2019-04-23T16:16:28.181Z,23.49
2019-04-23T16:19:07.260Z,23.48
2019-04-23T16:21:51.742Z,23.49
2019-04-23T16:24:06.046Z,23.45
2019-04-23T16:26:41.140Z,23.57
2019-04-23T16:31:39.915Z,23.68
2019-04-23T16:34:29.134Z,23.64
2019-04-23T16:37:08.453Z,23.63
2019-04-23T16:39:39.102Z,23.68
2019-04-23T16:42:08.805Z,23.64
2019-04-23T16:47:12.608Z,23.53
2019-04-23T16:49:33.025Z,23.59
2019-04-23T16:52:07.938Z,23.73
2019-04-23T16:57:26.343Z,23.55
2019-04-23T16:59:34.575Z,23.66
2019-04-23T17:02:11.922Z,23.62
2019-04-23T17:04:39.088Z,23.68
2019-04-23T17:07:05.378Z,23.57
2019-04-23T17:09:44.504Z,23.70
2019-04-23T17:15:34.473Z,23.06
2019-04-23T17:18:07.327Z,23.73
2019-04-23T17:20:30.774Z,23.58
2019-04-23T17:23:07.537Z,23.71
2019-04-23T17:25:28.248Z,23.64
2019-04-23T17:28:09.018Z,23.73
2019-04-23T17:30:28.344Z,23.88
2019-04-23T17:33:09.865Z,23.90
2019-04-23T17:35:46.243Z,23.83
2019-04-23T17:38:32.248Z,23.88
2019-04-23T17:41:00.057Z,23.87
2019-04-23T17:43:24.041Z,23.81
2019-04-23T17:45:57.237Z,23.81
2019-04-23T17:48:27.354Z,23.81
2019-04-23T17:53:29.745Z,23.62
2019-04-23T17:58:43.747Z,23.79
2019-04-23T18:03:57.379Z,23.75
2019-04-23T18:08:50.965Z,23.82
2019-04-23T18:11:16.310Z,23.52
2019-04-23T18:16:20.937Z,23.76
2019-04-23T18:18:56.290Z,23.77
2019-04-23T18:21:44.121Z,23.73
2019-04-23T18:27:57.434Z,23.51
2019-04-23T18:35:57.367Z,23.53
2019-04-23T18:38:31.682Z,23.53
2019-04-23T18:46:06.948Z,23.44
2019-04-23T18:48:45.460Z,23.61
2019-04-23T18:56:09.283Z,23.61
2019-04-23T19:06:32.737Z,23.04
2019-04-23T19:09:10.398Z,23.54
2019-04-23T19:12:21.507Z,22.82
2019-04-23T19:14:38.939Z,23.42
2019-04-23T19:19:55.611Z,23.25
2019-04-23T19:22:19.550Z,23.32
2019-04-23T19:24:43.696Z,23.13
2019-04-23T19:27:16.789Z,23.15
2019-04-23T19:29:46.294Z,23.18
2019-04-23T19:32:02.944Z,22.84
2019-04-23T19:34:40.776Z,23.25
2019-04-23T19:37:36.883Z,23.09
2019-04-23T19:42:10.375Z,23.21
2019-04-23T19:44:43.395Z,23.27
2019-04-23T19:52:36.579Z,23.14
2019-04-23T19:57:12.628Z,23.14
2019-04-23T20:04:42.406Z,22.84
2019-04-23T20:07:20.079Z,22.99
2019-04-23T20:19:44.845Z,22.72
2019-04-23T20:22:16.694Z,22.89
2019-04-23T20:25:04.094Z,22.72
2019-04-23T20:27:21.879Z,22.67
2019-04-23T20:30:26.495Z,22.74
2019-04-23T20:35:16.439Z,22.75
2019-04-23T20:40:08.647Z,22.75
2019-04-23T20:42:53.021Z,22.71
2019-04-23T20:45:38.956Z,22.75
2019-04-23T20:47:51.710Z,22.81
2019-04-23T20:50:16.506Z,22.21
2019-04-23T20:52:46.894Z,22.70
2019-04-23T20:55:49.464Z,22.52
2019-04-23T20:57:55.544Z,22.54
2019-04-23T21:00:44.126Z,22.56
2019-04-23T21:03:41.473Z,22.53
2019-04-23T21:05:41.232Z,22.46
2019-04-23T21:08:38.799Z,22.57
2019-04-23T21:13:42.736Z,22.22
2019-04-23T21:18:24.522Z,22.19
2019-04-23T21:20:50.087Z,22.18
2019-04-23T21:23:37.435Z,22.14
2019-04-23T21:26:01.914Z,22.11
2019-04-23T21:32:09.330Z,22.07
2019-04-23T21:34:35.399Z,22.18
2019-04-23T21:37:04.482Z,21.77
2019-04-23T21:40:04.753Z,21.79
2019-04-23T21:42:40.686Z,21.44
2019-04-23T21:44:59.028Z,21.70
2019-04-23T21:47:48.273Z,21.87
2019-04-23T21:50:08.400Z,21.90
2019-04-23T21:52:36.449Z,21.23
2019-04-23T21:57:40.524Z,21.77
2019-04-23T22:00:02.614Z,21.55
2019-04-23T22:02:31.322Z,21.77
2019-04-23T22:05:01.028Z,21.76
2019-04-23T22:07:40.165Z,21.95
2019-04-23T22:10:12.076Z,21.92
2019-04-23T22:12:34.177Z,21.77
2019-04-23T22:15:01.177Z,21.53
2019-04-23T22:17:33.139Z,21.65
2019-04-23T22:22:41.992Z,21.79
2019-04-23T22:24:59.217Z,21.53
2019-04-23T22:27:24.236Z,21.51
2019-04-23T22:29:59.057Z,21.61
2019-04-23T22:32:45.620Z,21.46
2019-04-23T22:35:01.151Z,21.56
2019-04-23T22:37:51.949Z,21.57
2019-04-23T22:39:59.351Z,21.67
2019-04-23T22:45:16.104Z,21.50
2019-04-23T22:47:42.688Z,21.53
2019-04-23T22:50:24.756Z,21.54
2019-04-23T22:57:56.379Z,21.42
2019-04-23T23:00:16.741Z,21.62
2019-04-23T23:03:06.328Z,21.52
2019-04-23T23:05:39.431Z,21.46
2019-04-23T23:10:31.873Z,21.60
2019-04-23T23:13:04.120Z,21.13
2019-04-23T23:15:30.545Z,21.82
2019-04-23T23:18:07.426Z,21.78
2019-04-23T23:20:29.962Z,21.61
2019-04-23T23:23:05.508Z,21.21
2019-04-23T23:25:31.162Z,20.97
2019-04-23T23:28:06.126Z,21.70
2019-04-23T23:30:26.268Z,21.77
2019-04-23T23:33:03.820Z,21.82
2019-04-23T23:35:28.368Z,21.73
2019-04-23T23:37:59.422Z,21.64
2019-04-23T23:40:25.533Z,21.59
2019-04-23T23:43:17.910Z,21.55
2019-04-23T23:45:31.525Z,21.57
2019-04-23T23:47:59.192Z,21.67
2019-04-23T23:53:04.271Z,21.58
2019-04-23T23:58:00.984Z,21.78
